sensor_id;sensor_type;location;lat;lon;timestamp;pressure;altitude;pressure_sealevel;temperature;humidity
50774;BME280;36745;48.544;8.918;2022-08-02T00:02:25;97587.16;;;17.77;86.14
50774;BME280;36745;48.544;8.918;2022-08-02T00:05:25;97588.56;;;17.67;86.97
50774;BME280;36745;48.544;8.918;2022-08-02T00:08:26;97583.16;;;17.63;87.25
50774;BME280;36745;48.544;8.918;2022-08-02T00:11:26;97589.75;;;17.60;87.18
50774;BME280;36745;48.544;8.918;2022-08-02T00:14:27;97590.03;;;17.62;85.99
50774;BME280;36745;48.544;8.918;2022-08-02T00:17:28;97589.25;;;17.47;86.03
50774;BME280;36745;48.544;8.918;2022-08-02T00:20:28;97594.97;;;17.38;86.26
50774;BME280;36745;48.544;8.918;2022-08-02T00:23:29;97600.97;;;17.31;86.35
50774;BME280;36745;48.544;8.918;2022-08-02T00:26:29;97611.00;;;17.23;86.78
50774;BME280;36745;48.544;8.918;2022-08-02T00:29:30;97609.09;;;17.14;87.78
50774;BME280;36745;48.544;8.918;2022-08-02T00:32:30;97606.59;;;17.16;87.62
50774;BME280;36745;48.544;8.918;2022-08-02T00:35:31;97613.63;;;17.12;87.99
50774;BME280;36745;48.544;8.918;2022-08-02T00:38:32;97613.31;;;17.10;87.34
50774;BME280;36745;48.544;8.918;2022-08-02T00:41:32;97610.28;;;17.08;87.73
50774;BME280;36745;48.544;8.918;2022-08-02T00:44:32;97605.94;;;17.07;87.89
50774;BME280;36745;48.544;8.918;2022-08-02T00:47:33;97606.19;;;17.09;87.69
50774;BME280;36745;48.544;8.918;2022-08-02T00:50:34;97611.22;;;17.04;88.38
50774;BME280;36745;48.544;8.918;2022-08-02T00:53:35;97591.22;;;17.06;88.15
50774;BME280;36745;48.544;8.918;2022-08-02T00:56:35;97589.47;;;17.09;87.81
50774;BME280;36745;48.544;8.918;2022-08-02T00:59:36;97589.09;;;17.01;87.98
50774;BME280;36745;48.544;8.918;2022-08-02T01:02:36;97591.59;;;16.99;88.13
50774;BME280;36745;48.544;8.918;2022-08-02T01:05:37;97596.22;;;16.87;88.45
50774;BME280;36745;48.544;8.918;2022-08-02T01:08:38;97591.41;;;16.88;88.35
50774;BME280;36745;48.544;8.918;2022-08-02T01:11:39;97586.13;;;16.90;88.54
50774;BME280;36745;48.544;8.918;2022-08-02T01:14:41;97591.84;;;16.81;88.21
50774;BME280;36745;48.544;8.918;2022-08-02T01:27:39;97601.97;;;16.54;88.20
50774;BME280;36745;48.544;8.918;2022-08-02T01:30:43;97604.69;;;16.49;88.23
50774;BME280;36745;48.544;8.918;2022-08-02T01:37:40;97596.50;;;16.45;88.39
50774;BME280;36745;48.544;8.918;2022-08-02T01:40:44;97591.91;;;16.42;89.23
50774;BME280;36745;48.544;8.918;2022-08-02T01:43:47;97594.47;;;16.46;89.58
50774;BME280;36745;48.544;8.918;2022-08-02T01:46:48;97590.44;;;16.47;89.38
50774;BME280;36745;48.544;8.918;2022-08-02T01:49:52;97588.91;;;16.46;89.06
50774;BME280;36745;48.544;8.918;2022-08-02T01:52:56;97597.94;;;16.41;89.50
50774;BME280;36745;48.544;8.918;2022-08-02T01:55:57;97593.44;;;16.43;89.21
50774;BME280;36745;48.544;8.918;2022-08-02T01:58:58;97601.41;;;16.36;89.50
50774;BME280;36745;48.544;8.918;2022-08-02T02:02:00;97608.50;;;16.37;90.10
50774;BME280;36745;48.544;8.918;2022-08-02T02:05:01;97605.72;;;16.37;89.63
50774;BME280;36745;48.544;8.918;2022-08-02T02:08:04;97599.84;;;16.35;89.91
50774;BME280;36745;48.544;8.918;2022-08-02T02:11:06;97607.34;;;16.29;90.21
50774;BME280;36745;48.544;8.918;2022-08-02T02:14:08;97598.72;;;16.27;90.23
50774;BME280;36745;48.544;8.918;2022-08-02T02:17:11;97603.31;;;16.30;90.18
50774;BME280;36745;48.544;8.918;2022-08-02T02:20:15;97602.06;;;16.31;90.11
50774;BME280;36745;48.544;8.918;2022-08-02T02:23:16;97600.88;;;16.23;90.17
50774;BME280;36745;48.544;8.918;2022-08-02T02:26:17;97600.88;;;16.23;90.48
50774;BME280;36745;48.544;8.918;2022-08-02T02:29:24;97594.38;;;16.26;90.66
50774;BME280;36745;48.544;8.918;2022-08-02T02:32:26;97588.50;;;16.24;90.84
50774;BME280;36745;48.544;8.918;2022-08-02T02:35:29;97593.13;;;16.27;90.75
50774;BME280;36745;48.544;8.918;2022-08-02T02:38:31;97576.41;;;16.27;90.50
50774;BME280;36745;48.544;8.918;2022-08-02T02:41:32;97578.13;;;16.24;90.69
50774;BME280;36745;48.544;8.918;2022-08-02T02:44:34;97575.53;;;16.20;90.59
50774;BME280;36745;48.544;8.918;2022-08-02T02:47:36;97573.81;;;16.23;90.60
50774;BME280;36745;48.544;8.918;2022-08-02T02:50:37;97568.13;;;16.17;90.70
50774;BME280;36745;48.544;8.918;2022-08-02T02:53:39;97568.13;;;16.17;90.66
50774;BME280;36745;48.544;8.918;2022-08-02T02:56:41;97560.44;;;16.12;90.59
50774;BME280;36745;48.544;8.918;2022-08-02T02:59:42;97560.63;;;16.09;90.53
50774;BME280;36745;48.544;8.918;2022-08-02T03:02:43;97562.06;;;16.04;91.00
50774;BME280;36745;48.544;8.918;2022-08-02T03:05:44;97559.44;;;16.01;90.89
50774;BME280;36745;48.544;8.918;2022-08-02T03:08:45;97567.53;;;15.99;91.10
50774;BME280;36745;48.544;8.918;2022-08-02T03:11:46;97573.56;;;15.97;90.73
50774;BME280;36745;48.544;8.918;2022-08-02T03:14:47;97564.63;;;15.93;90.63
50774;BME280;36745;48.544;8.918;2022-08-02T03:17:47;97565.88;;;15.92;90.69
50774;BME280;36745;48.544;8.918;2022-08-02T03:20:48;97573.66;;;15.88;90.63
50774;BME280;36745;48.544;8.918;2022-08-02T03:23:49;97569.97;;;15.82;90.45
50774;BME280;36745;48.544;8.918;2022-08-02T03:26:49;97571.69;;;15.79;91.06
50774;BME280;36745;48.544;8.918;2022-08-02T03:29:50;97574.97;;;15.78;91.14
50774;BME280;36745;48.544;8.918;2022-08-02T03:32:50;97582.44;;;15.72;90.77
50774;BME280;36745;48.544;8.918;2022-08-02T03:35:52;97576.28;;;15.68;91.06
50774;BME280;36745;48.544;8.918;2022-08-02T03:38:55;97573.19;;;15.66;91.42
50774;BME280;36745;48.544;8.918;2022-08-02T03:41:56;97571.66;;;15.65;91.53
50774;BME280;36745;48.544;8.918;2022-08-02T03:44:57;97570.28;;;15.60;91.77
50774;BME280;36745;48.544;8.918;2022-08-02T03:48:00;97590.09;;;15.62;92.06
50774;BME280;36745;48.544;8.918;2022-08-02T03:51:00;97588.34;;;15.65;91.69
50774;BME280;36745;48.544;8.918;2022-08-02T03:54:02;97581.84;;;15.68;91.43
50774;BME280;36745;48.544;8.918;2022-08-02T03:57:05;97588.94;;;15.69;91.64
50774;BME280;36745;48.544;8.918;2022-08-02T04:00:08;97596.81;;;15.70;91.50
50774;BME280;36745;48.544;8.918;2022-08-02T04:03:09;97591.44;;;15.67;91.66
50774;BME280;36745;48.544;8.918;2022-08-02T04:06:09;97594.81;;;15.71;91.06
50774;BME280;36745;48.544;8.918;2022-08-02T04:09:10;97597.47;;;15.65;91.26
50774;BME280;36745;48.544;8.918;2022-08-02T04:12:10;97598.25;;;15.66;91.04
50774;BME280;36745;48.544;8.918;2022-08-02T04:15:12;97605.25;;;15.61;91.41
50774;BME280;36745;48.544;8.918;2022-08-02T04:18:13;97603.09;;;15.56;91.61
50774;BME280;36745;48.544;8.918;2022-08-02T04:21:16;97603.53;;;15.55;91.68
50774;BME280;36745;48.544;8.918;2022-08-02T04:24:22;97610.16;;;15.57;91.29
50774;BME280;36745;48.544;8.918;2022-08-02T04:27:24;97609.56;;;15.53;91.65
50774;BME280;36745;48.544;8.918;2022-08-02T04:30:26;97603.59;;;15.46;92.04
50774;BME280;36745;48.544;8.918;2022-08-02T04:33:27;97606.66;;;15.48;92.03
50774;BME280;36745;48.544;8.918;2022-08-02T04:36:28;97611.31;;;15.51;91.95
50774;BME280;36745;48.544;8.918;2022-08-02T04:39:29;97603.84;;;15.57;92.27
50774;BME280;36745;48.544;8.918;2022-08-02T04:42:29;97614.06;;;15.60;92.42
50774;BME280;36745;48.544;8.918;2022-08-02T04:45:30;97613.09;;;15.63;92.35
50774;BME280;36745;48.544;8.918;2022-08-02T04:48:31;97608.72;;;15.71;92.00
50774;BME280;36745;48.544;8.918;2022-08-02T04:51:35;97614.59;;;15.73;91.59
50774;BME280;36745;48.544;8.918;2022-08-02T04:54:36;97617.09;;;15.71;91.27
50774;BME280;36745;48.544;8.918;2022-08-02T05:00:40;97620.78;;;16.15;93.19
50774;BME280;36745;48.544;8.918;2022-08-02T05:03:41;97618.94;;;16.66;93.01
50774;BME280;36745;48.544;8.918;2022-08-02T05:06:41;97615.94;;;17.13;92.74
50774;BME280;36745;48.544;8.918;2022-08-02T05:09:44;97610.41;;;17.68;92.53
50774;BME280;36745;48.544;8.918;2022-08-02T05:12:45;97611.69;;;18.34;92.53
50774;BME280;36745;48.544;8.918;2022-08-02T05:15:48;97610.31;;;18.69;90.65
50774;BME280;36745;48.544;8.918;2022-08-02T05:18:49;97611.22;;;19.18;90.57
50774;BME280;36745;48.544;8.918;2022-08-02T05:21:50;97611.75;;;19.22;88.85
50774;BME280;36745;48.544;8.918;2022-08-02T05:24:50;97608.44;;;19.18;88.00
50774;BME280;36745;48.544;8.918;2022-08-02T05:27:51;97616.66;;;18.96;86.52
50774;BME280;36745;48.544;8.918;2022-08-02T05:30:51;97617.44;;;18.70;86.58
50774;BME280;36745;48.544;8.918;2022-08-02T05:33:51;97616.75;;;19.07;87.46
50774;BME280;36745;48.544;8.918;2022-08-02T05:36:52;97615.19;;;18.75;85.15
50774;BME280;36745;48.544;8.918;2022-08-02T05:40:13;97619.81;;;18.32;84.80
50774;BME280;36745;48.544;8.918;2022-08-02T05:43:31;97616.69;;;18.04;85.37
50774;BME280;36745;48.544;8.918;2022-08-02T05:46:31;97615.44;;;18.05;85.99
50774;BME280;36745;48.544;8.918;2022-08-02T05:49:32;97611.22;;;18.35;87.23
50774;BME280;36745;48.544;8.918;2022-08-02T05:52:44;97611.22;;;18.87;87.64
50774;BME280;36745;48.544;8.918;2022-08-02T05:56:05;97620.44;;;19.24;86.29
50774;BME280;36745;48.544;8.918;2022-08-02T05:59:31;97624.94;;;19.47;85.32
50774;BME280;36745;48.544;8.918;2022-08-02T06:09:08;97622.72;;;19.26;83.69
50774;BME280;36745;48.544;8.918;2022-08-02T06:12:10;97621.47;;;19.27;83.59
50774;BME280;36745;48.544;8.918;2022-08-02T06:15:15;97613.66;;;19.36;82.84
50774;BME280;36745;48.544;8.918;2022-08-02T06:18:16;97623.88;;;19.39;83.21
50774;BME280;36745;48.544;8.918;2022-08-02T06:21:22;97618.72;;;19.32;82.75
50774;BME280;36745;48.544;8.918;2022-08-02T06:24:25;97612.41;;;19.37;83.11
50774;BME280;36745;48.544;8.918;2022-08-02T06:27:26;97617.06;;;19.51;82.81
50774;BME280;36745;48.544;8.918;2022-08-02T06:30:28;97609.47;;;19.58;82.41
50774;BME280;36745;48.544;8.918;2022-08-02T06:33:29;97612.09;;;19.67;82.19
50774;BME280;36745;48.544;8.918;2022-08-02T06:36:43;97612.63;;;19.76;82.24
50774;BME280;36745;48.544;8.918;2022-08-02T06:39:57;97622.56;;;19.72;81.47
50774;BME280;36745;48.544;8.918;2022-08-02T06:46:22;97611.03;;;19.64;81.36
50774;BME280;36745;48.544;8.918;2022-08-02T06:49:22;97607.47;;;19.64;81.23
50774;BME280;36745;48.544;8.918;2022-08-02T06:52:27;97607.59;;;19.86;82.12
50774;BME280;36745;48.544;8.918;2022-08-02T06:55:28;97600.53;;;20.07;81.82
50774;BME280;36745;48.544;8.918;2022-08-02T06:58:31;97605.22;;;20.21;81.44
50774;BME280;36745;48.544;8.918;2022-08-02T07:01:31;97604.19;;;20.24;80.97
50774;BME280;36745;48.544;8.918;2022-08-02T07:04:32;97606.00;;;20.33;80.87
50774;BME280;36745;48.544;8.918;2022-08-02T07:07:34;97607.56;;;20.51;81.17
50774;BME280;36745;48.544;8.918;2022-08-02T07:10:34;97623.38;;;20.59;80.24
50774;BME280;36745;48.544;8.918;2022-08-02T07:13:35;97620.38;;;20.74;80.10
50774;BME280;36745;48.544;8.918;2022-08-02T07:16:36;97620.88;;;20.72;79.31
50774;BME280;36745;48.544;8.918;2022-08-02T07:19:37;97632.88;;;20.84;79.75
50774;BME280;36745;48.544;8.918;2022-08-02T07:22:37;97633.16;;;21.03;79.53
50774;BME280;36745;48.544;8.918;2022-08-02T07:25:39;97633.44;;;21.16;78.95
50774;BME280;36745;48.544;8.918;2022-08-02T07:28:39;97633.94;;;21.26;79.09
50774;BME280;36745;48.544;8.918;2022-08-02T07:31:40;97623.72;;;21.34;78.00
50774;BME280;36745;48.544;8.918;2022-08-02T07:34:41;97632.66;;;21.43;77.62
50774;BME280;36745;48.544;8.918;2022-08-02T07:37:41;97627.81;;;21.44;76.70
50774;BME280;36745;48.544;8.918;2022-08-02T07:40:44;97620.13;;;21.72;77.69
50774;BME280;36745;48.544;8.918;2022-08-02T07:43:45;97620.59;;;21.76;76.05
50774;BME280;36745;48.544;8.918;2022-08-02T07:46:45;97621.09;;;21.80;76.18
50774;BME280;36745;48.544;8.918;2022-08-02T07:49:46;97614.22;;;21.81;76.08
50774;BME280;36745;48.544;8.918;2022-08-02T07:52:46;97612.44;;;21.67;75.15
50774;BME280;36745;48.544;8.918;2022-08-02T07:55:47;97626.22;;;21.71;75.85
50774;BME280;36745;48.544;8.918;2022-08-02T07:58:47;97622.41;;;21.74;74.82
50774;BME280;36745;48.544;8.918;2022-08-02T08:01:48;97623.16;;;21.74;75.49
50774;BME280;36745;48.544;8.918;2022-08-02T08:04:51;97631.06;;;21.81;74.66
50774;BME280;36745;48.544;8.918;2022-08-02T08:07:51;97625.72;;;21.83;74.45
50774;BME280;36745;48.544;8.918;2022-08-02T08:10:51;97641.28;;;21.79;73.79
50774;BME280;36745;48.544;8.918;2022-08-02T08:13:52;97633.13;;;21.70;73.51
50774;BME280;36745;48.544;8.918;2022-08-02T08:16:53;97625.19;;;21.68;73.68
50774;BME280;36745;48.544;8.918;2022-08-02T08:19:53;97634.91;;;21.78;73.65
50774;BME280;36745;48.544;8.918;2022-08-02T08:22:54;97628.72;;;21.96;73.20
50774;BME280;36745;48.544;8.918;2022-08-02T08:26:03;97634.25;;;22.19;73.55
50774;BME280;36745;48.544;8.918;2022-08-02T08:29:04;97629.00;;;22.45;73.32
50774;BME280;36745;48.544;8.918;2022-08-02T08:32:06;97617.47;;;22.54;72.60
50774;BME280;36745;48.544;8.918;2022-08-02T08:35:07;97622.41;;;22.37;71.06
50774;BME280;36745;48.544;8.918;2022-08-02T08:38:10;97633.97;;;22.28;70.86
50774;BME280;36745;48.544;8.918;2022-08-02T08:41:19;97627.47;;;22.44;71.07
50774;BME280;36745;48.544;8.918;2022-08-02T08:44:20;97628.44;;;22.63;70.71
50774;BME280;36745;48.544;8.918;2022-08-02T08:47:23;97608.81;;;22.88;71.15
50774;BME280;36745;48.544;8.918;2022-08-02T08:50:24;97613.03;;;23.05;70.33
50774;BME280;36745;48.544;8.918;2022-08-02T08:53:28;97620.09;;;23.23;70.24
50774;BME280;36745;48.544;8.918;2022-08-02T08:56:33;97609.81;;;23.25;69.23
50774;BME280;36745;48.544;8.918;2022-08-02T08:59:34;97614.47;;;23.23;68.52
50774;BME280;36745;48.544;8.918;2022-08-02T09:02:35;97622.81;;;23.34;68.38
50774;BME280;36745;48.544;8.918;2022-08-02T09:05:37;97615.09;;;23.35;67.36
50774;BME280;36745;48.544;8.918;2022-08-02T09:08:38;97608.38;;;23.43;67.44
50774;BME280;36745;48.544;8.918;2022-08-02T09:11:38;97603.75;;;23.70;67.72
50774;BME280;36745;48.544;8.918;2022-08-02T09:14:39;97601.91;;;23.73;66.82
50774;BME280;36745;48.544;8.918;2022-08-02T09:17:50;97597.22;;;23.81;65.69
50774;BME280;36745;48.544;8.918;2022-08-02T09:23:52;97596.03;;;23.95;65.51
50774;BME280;36745;48.544;8.918;2022-08-02T09:26:54;97594.09;;;24.27;65.63
50774;BME280;36745;48.544;8.918;2022-08-02T09:29:54;97602.78;;;24.29;63.84
50774;BME280;36745;48.544;8.918;2022-08-02T09:32:55;97594.72;;;24.20;63.24
50774;BME280;36745;48.544;8.918;2022-08-02T09:36:06;97589.81;;;24.02;62.24
50774;BME280;36745;48.544;8.918;2022-08-02T09:39:09;97591.47;;;23.92;61.99
50774;BME280;36745;48.544;8.918;2022-08-02T09:42:10;97587.69;;;24.08;62.31
50774;BME280;36745;48.544;8.918;2022-08-02T09:45:11;97583.81;;;24.30;62.33
50774;BME280;36745;48.544;8.918;2022-08-02T09:48:12;97588.84;;;24.56;61.92
50774;BME280;36745;48.544;8.918;2022-08-02T09:51:12;97589.09;;;24.58;61.01
50774;BME280;36745;48.544;8.918;2022-08-02T09:54:20;97590.28;;;24.43;60.55
50774;BME280;36745;48.544;8.918;2022-08-02T09:57:27;97585.84;;;24.48;59.84
50774;BME280;36745;48.544;8.918;2022-08-02T10:00:27;97582.53;;;24.68;58.43
50774;BME280;36745;48.544;8.918;2022-08-02T10:03:28;97578.94;;;24.68;58.56
50774;BME280;36745;48.544;8.918;2022-08-02T10:06:29;97582.03;;;24.45;57.48
50774;BME280;36745;48.544;8.918;2022-08-02T10:09:31;97573.97;;;24.74;58.13
50774;BME280;36745;48.544;8.918;2022-08-02T10:12:31;97577.47;;;24.80;56.80
50774;BME280;36745;48.544;8.918;2022-08-02T10:15:32;97585.34;;;25.00;57.98
50774;BME280;36745;48.544;8.918;2022-08-02T10:18:34;97579.19;;;25.15;56.75
50774;BME280;36745;48.544;8.918;2022-08-02T10:21:57;97578.41;;;25.33;56.30
50774;BME280;36745;48.544;8.918;2022-08-02T10:25:02;97566.13;;;25.44;56.31
50774;BME280;36745;48.544;8.918;2022-08-02T10:28:07;97565.47;;;25.51;56.07
50774;BME280;36745;48.544;8.918;2022-08-02T10:31:13;97558.53;;;25.65;54.73
50774;BME280;36745;48.544;8.918;2022-08-02T10:34:19;97564.28;;;25.72;55.44
50774;BME280;36745;48.544;8.918;2022-08-02T10:37:21;97556.34;;;25.58;54.98
50774;BME280;36745;48.544;8.918;2022-08-02T10:40:44;97558.09;;;25.61;54.53
50774;BME280;36745;48.544;8.918;2022-08-02T10:43:47;97548.94;;;25.81;53.78
50774;BME280;36745;48.544;8.918;2022-08-02T10:46:48;97545.91;;;25.92;53.67
50774;BME280;36745;48.544;8.918;2022-08-02T10:49:58;97550.91;;;25.99;53.35
50774;BME280;36745;48.544;8.918;2022-08-02T10:53:26;97549.81;;;26.02;52.62
50774;BME280;36745;48.544;8.918;2022-08-02T10:56:44;97548.47;;;26.17;52.40
50774;BME280;36745;48.544;8.918;2022-08-02T10:59:46;97532.13;;;26.23;52.76
50774;BME280;36745;48.544;8.918;2022-08-02T11:02:47;97544.69;;;26.61;52.71
50774;BME280;36745;48.544;8.918;2022-08-02T11:06:06;97537.38;;;26.86;51.60
50774;BME280;36745;48.544;8.918;2022-08-02T11:09:28;97538.13;;;26.87;50.99
50774;BME280;36745;48.544;8.918;2022-08-02T11:12:31;97534.81;;;26.96;51.42
50774;BME280;36745;48.544;8.918;2022-08-02T11:15:51;97535.28;;;27.08;50.69
50774;BME280;36745;48.544;8.918;2022-08-02T11:28:22;97521.47;;;26.83;47.93
50774;BME280;36745;48.544;8.918;2022-08-02T11:31:24;97520.94;;;26.85;48.46
50774;BME280;36745;48.544;8.918;2022-08-02T11:34:25;97515.19;;;26.57;47.74
50774;BME280;36745;48.544;8.918;2022-08-02T11:37:33;97509.00;;;26.45;47.74
50774;BME280;36745;48.544;8.918;2022-08-02T11:40:37;97502.97;;;26.48;47.52
50774;BME280;36745;48.544;8.918;2022-08-02T11:43:38;97514.50;;;26.30;46.95
50774;BME280;36745;48.544;8.918;2022-08-02T11:46:39;97512.28;;;26.36;46.88
50774;BME280;36745;48.544;8.918;2022-08-02T11:49:40;97515.06;;;26.49;46.44
50774;BME280;36745;48.544;8.918;2022-08-02T11:52:42;97506.75;;;26.64;47.40
50774;BME280;36745;48.544;8.918;2022-08-02T11:55:42;97509.13;;;26.73;45.78
50774;BME280;36745;48.544;8.918;2022-08-02T12:02:04;97495.47;;;26.92;45.39
50774;BME280;36745;48.544;8.918;2022-08-02T12:05:06;97506.00;;;26.84;45.14
50774;BME280;36745;48.544;8.918;2022-08-02T12:08:06;97487.47;;;26.83;44.88
50774;BME280;36745;48.544;8.918;2022-08-02T12:11:07;97497.13;;;27.09;45.14
50774;BME280;36745;48.544;8.918;2022-08-02T12:14:07;97495.25;;;27.32;45.18
50774;BME280;36745;48.544;8.918;2022-08-02T12:17:08;97489.66;;;27.19;43.45
50774;BME280;36745;48.544;8.918;2022-08-02T12:20:36;97490.03;;;27.15;44.76
50774;BME280;36745;48.544;8.918;2022-08-02T12:23:42;97487.53;;;27.40;44.49
50774;BME280;36745;48.544;8.918;2022-08-02T12:26:46;97492.59;;;27.62;44.28
50774;BME280;36745;48.544;8.918;2022-08-02T12:29:47;97492.50;;;27.75;43.66
50774;BME280;36745;48.544;8.918;2022-08-02T12:33:07;97491.19;;;27.76;43.38
50774;BME280;36745;48.544;8.918;2022-08-02T12:36:19;97492.59;;;27.62;43.22
50774;BME280;36745;48.544;8.918;2022-08-02T12:39:19;97483.13;;;27.60;43.39
50774;BME280;36745;48.544;8.918;2022-08-02T12:42:20;97487.06;;;27.57;43.05
50774;BME280;36745;48.544;8.918;2022-08-02T12:45:20;97487.34;;;27.38;41.92
50774;BME280;36745;48.544;8.918;2022-08-02T12:48:37;97483.38;;;27.33;42.19
50774;BME280;36745;48.544;8.918;2022-08-02T12:51:39;97467.59;;;27.53;42.53
50774;BME280;36745;48.544;8.918;2022-08-02T12:54:40;97472.56;;;27.60;42.48
50774;BME280;36745;48.544;8.918;2022-08-02T12:58:06;97463.94;;;27.45;41.28
50774;BME280;36745;48.544;8.918;2022-08-02T13:01:07;97459.28;;;27.55;42.07
50774;BME280;36745;48.544;8.918;2022-08-02T13:04:07;97455.06;;;27.77;42.05
50774;BME280;36745;48.544;8.918;2022-08-02T13:07:08;97450.63;;;27.68;41.61
50774;BME280;36745;48.544;8.918;2022-08-02T13:10:08;97456.19;;;27.46;40.34
50774;BME280;36745;48.544;8.918;2022-08-02T13:13:09;97452.81;;;27.47;41.42
50774;BME280;36745;48.544;8.918;2022-08-02T13:16:09;97447.63;;;27.66;41.54
50774;BME280;36745;48.544;8.918;2022-08-02T13:19:11;97456.00;;;27.79;41.40
50774;BME280;36745;48.544;8.918;2022-08-02T13:22:14;97456.44;;;27.91;41.32
50774;BME280;36745;48.544;8.918;2022-08-02T13:25:14;97449.19;;;27.75;40.94
50774;BME280;36745;48.544;8.918;2022-08-02T13:28:15;97451.06;;;27.72;41.16
50774;BME280;36745;48.544;8.918;2022-08-02T13:31:15;97444.72;;;27.87;41.28
50774;BME280;36745;48.544;8.918;2022-08-02T13:34:15;97443.94;;;27.87;40.80
50774;BME280;36745;48.544;8.918;2022-08-02T13:37:16;97445.28;;;27.57;40.24
50774;BME280;36745;48.544;8.918;2022-08-02T13:40:17;97436.66;;;27.34;40.60
50774;BME280;36745;48.544;8.918;2022-08-02T13:43:17;97432.34;;;27.41;40.80
50774;BME280;36745;48.544;8.918;2022-08-02T13:46:18;97423.88;;;27.49;40.88
50774;BME280;36745;48.544;8.918;2022-08-02T13:49:19;97424.81;;;27.44;40.55
50774;BME280;36745;48.544;8.918;2022-08-02T13:52:20;97422.13;;;27.38;40.56
50774;BME280;36745;48.544;8.918;2022-08-02T13:55:20;97427.13;;;27.53;40.87
50774;BME280;36745;48.544;8.918;2022-08-02T13:58:20;97421.69;;;27.62;40.73
50774;BME280;36745;48.544;8.918;2022-08-02T14:01:21;97414.69;;;27.63;40.40
50774;BME280;36745;48.544;8.918;2022-08-02T14:04:22;97408.91;;;27.76;40.39
50774;BME280;36745;48.544;8.918;2022-08-02T14:07:23;97411.78;;;27.92;40.41
50774;BME280;36745;48.544;8.918;2022-08-02T14:10:23;97412.00;;;27.50;39.74
50774;BME280;36745;48.544;8.918;2022-08-02T14:13:25;97416.31;;;27.51;40.36
50774;BME280;36745;48.544;8.918;2022-08-02T14:16:25;97411.22;;;27.50;40.14
50774;BME280;36745;48.544;8.918;2022-08-02T14:19:26;97409.00;;;27.63;40.59
50774;BME280;36745;48.544;8.918;2022-08-02T14:22:26;97407.31;;;27.68;40.33
50774;BME280;36745;48.544;8.918;2022-08-02T14:25:28;97405.97;;;27.61;40.10
50774;BME280;36745;48.544;8.918;2022-08-02T14:28:28;97409.47;;;27.39;39.79
50774;BME280;36745;48.544;8.918;2022-08-02T14:31:29;97403.00;;;27.31;40.06
50774;BME280;36745;48.544;8.918;2022-08-02T14:34:29;97404.00;;;27.41;40.03
50774;BME280;36745;48.544;8.918;2022-08-02T14:37:30;97393.38;;;27.34;40.03
50774;BME280;36745;48.544;8.918;2022-08-02T14:40:32;97397.22;;;27.52;40.33
50774;BME280;36745;48.544;8.918;2022-08-02T14:43:32;97394.72;;;27.76;40.57
50774;BME280;36745;48.544;8.918;2022-08-02T14:46:51;97388.50;;;27.86;40.14
50774;BME280;36745;48.544;8.918;2022-08-02T14:49:51;97396.22;;;27.77;39.68
50774;BME280;36745;48.544;8.918;2022-08-02T14:52:52;97395.03;;;27.65;39.61
50774;BME280;36745;48.544;8.918;2022-08-02T14:55:52;97388.63;;;27.72;39.96
50774;BME280;36745;48.544;8.918;2022-08-02T14:58:53;97386.78;;;27.75;39.58
50774;BME280;36745;48.544;8.918;2022-08-02T15:01:54;97380.28;;;27.67;39.28
50774;BME280;36745;48.544;8.918;2022-08-02T15:04:54;97382.56;;;27.68;39.52
50774;BME280;36745;48.544;8.918;2022-08-02T15:07:55;97384.50;;;27.73;39.88
50774;BME280;36745;48.544;8.918;2022-08-02T15:10:56;97383.59;;;27.43;38.84
50774;BME280;36745;48.544;8.918;2022-08-02T15:13:56;97389.63;;;27.39;39.11
50774;BME280;36745;48.544;8.918;2022-08-02T15:16:58;97385.22;;;27.30;39.20
50774;BME280;36745;48.544;8.918;2022-08-02T15:19:59;97389.19;;;27.27;39.31
50774;BME280;36745;48.544;8.918;2022-08-02T15:22:59;97380.91;;;27.37;39.36
50774;BME280;36745;48.544;8.918;2022-08-02T15:26:01;97383.44;;;27.56;39.41
50774;BME280;36745;48.544;8.918;2022-08-02T15:29:02;97391.44;;;27.65;39.73
50774;BME280;36745;48.544;8.918;2022-08-02T15:32:03;97380.84;;;27.65;39.50
50774;BME280;36745;48.544;8.918;2022-08-02T15:35:12;97385.94;;;27.59;39.15
50774;BME280;36745;48.544;8.918;2022-08-02T15:38:12;97382.72;;;27.55;39.28
50774;BME280;36745;48.544;8.918;2022-08-02T15:41:13;97383.97;;;27.39;38.56
50774;BME280;36745;48.544;8.918;2022-08-02T15:44:14;97378.47;;;27.41;39.22
50774;BME280;36745;48.544;8.918;2022-08-02T15:47:14;97378.13;;;27.45;38.89
50774;BME280;36745;48.544;8.918;2022-08-02T15:50:14;97376.03;;;27.45;39.13
50774;BME280;36745;48.544;8.918;2022-08-02T15:53:15;97369.63;;;27.52;38.84
50774;BME280;36745;48.544;8.918;2022-08-02T15:56:15;97367.94;;;27.57;39.12
50774;BME280;36745;48.544;8.918;2022-08-02T15:59:16;97362.66;;;27.53;38.75
50774;BME280;36745;48.544;8.918;2022-08-02T16:02:16;97369.38;;;27.35;38.57
50774;BME280;36745;48.544;8.918;2022-08-02T16:05:18;97363.31;;;27.31;38.78
50774;BME280;36745;48.544;8.918;2022-08-02T16:08:19;97362.00;;;27.32;39.03
50774;BME280;36745;48.544;8.918;2022-08-02T16:11:20;97366.69;;;27.29;38.90
50774;BME280;36745;48.544;8.918;2022-08-02T16:14:21;97370.72;;;27.34;39.31
50774;BME280;36745;48.544;8.918;2022-08-02T16:17:21;97364.63;;;27.30;39.05
50774;BME280;36745;48.544;8.918;2022-08-02T16:20:22;97366.47;;;27.20;38.66
50774;BME280;36745;48.544;8.918;2022-08-02T16:23:22;97367.88;;;27.06;38.91
50774;BME280;36745;48.544;8.918;2022-08-02T16:26:23;97362.16;;;26.98;38.74
50774;BME280;36745;48.544;8.918;2022-08-02T16:29:25;97360.38;;;26.87;38.92
50774;BME280;36745;48.544;8.918;2022-08-02T16:32:25;97358.06;;;26.78;38.75
50774;BME280;36745;48.544;8.918;2022-08-02T16:35:26;97359.78;;;26.81;39.14
50774;BME280;36745;48.544;8.918;2022-08-02T16:38:27;97356.00;;;26.79;39.20
50774;BME280;36745;48.544;8.918;2022-08-02T16:41:27;97354.84;;;26.74;39.39
50774;BME280;36745;48.544;8.918;2022-08-02T16:44:28;97354.06;;;26.74;39.20
50774;BME280;36745;48.544;8.918;2022-08-02T16:47:29;97346.69;;;26.71;39.58
50774;BME280;36745;48.544;8.918;2022-08-02T16:50:29;97347.03;;;26.67;39.11